MIA weather

Miami International Airport
Miami, Florida, United States

Public forecast

Using degrees Fahrenheit for public forecast. Weather courtesy of forecast.io.

METAR (pilot weather report)

Retrieved 2019/02/18 16:53 UTC (14 minutes ago):

KMIA 181653Z 15012KT 10SM SCT020 29/24 A3012 RMK AO2 SLP201 T02890239

TAF (pilot weather forecast)

Retrieved 2019/02/18 12:22 UTC (5 hours ago):

TAF KMIA 181120Z 1812/1918 14008KT P6SM FEW015 SCT025 BKN050 FM181400 15011KT P6SM SCT035 FM190000 13007KT P6SM SCT025 BKN050 FM191400 11011KT P6SM SCT035